Time;durP1;ratioP1;P1;durP2;ratioP2;P2;SDS_P1;SDS_P2;PMS_P1;PMS_P2;Temp;Humidity;BMP_temperature;BMP_pressure;BME280_temperature;BME280_humidity;BME280_pressure;Samples;Min_cycle;Max_cycle;Signal;HPM_P1;HPM_P2
2022/07/20 00:01:16;;;;;;;18.30;5.47;;;16.80;25.70;;;;;;5059334;28;46416;-63
2022/07/20 00:03:41;;;;;;;9.37;4.90;;;16.80;25.70;;;;;;5059567;28;48227;-64
2022/07/20 00:06:07;;;;;;;8.83;5.67;;;16.80;25.90;;;;;;5061363;28;46398;-63
2022/07/20 00:11:20;;;;;;;9.63;5.20;;;16.90;25.90;;;;;;5062586;28;46454;-63
2022/07/20 00:13:55;;;;;;;13.63;5.80;;;17.00;26.00;;;;;;5062359;28;46319;-63
2022/07/20 00:16:22;;;;;;;7.90;5.20;;;17.00;26.10;;;;;;5063033;28;46344;-63
2022/07/20 00:18:48;;;;;;;10.43;4.77;;;17.00;26.00;;;;;;5062757;28;46751;-62
2022/07/20 00:21:13;;;;;;;11.00;5.70;;;16.90;26.20;;;;;;5060040;28;46531;-62
2022/07/20 00:23:40;;;;;;;14.73;5.60;;;16.80;26.40;;;;;;5062648;28;46397;-62
2022/07/20 00:26:05;;;;;;;9.70;5.43;;;16.80;26.60;;;;;;5061746;28;46417;-62
2022/07/20 00:28:31;;;;;;;9.43;4.80;;;16.70;26.70;;;;;;5062931;28;46385;-62
2022/07/20 00:30:57;;;;;;;14.80;5.77;;;16.70;26.80;;;;;;5063249;28;45845;-63
2022/07/20 00:33:22;;;;;;;10.03;5.70;;;16.60;26.90;;;;;;5062076;28;46596;-63
2022/07/20 00:35:48;;;;;;;15.57;5.40;;;16.50;26.90;;;;;;5063491;28;46412;-63
2022/07/20 00:38:14;;;;;;;8.10;5.47;;;16.40;27.10;;;;;;5063365;28;46468;-62
2022/07/20 00:40:40;;;;;;;11.77;5.40;;;16.20;27.30;;;;;;5061976;28;46305;-62
2022/07/20 00:43:05;;;;;;;10.53;5.90;;;16.10;27.50;;;;;;5062212;28;48102;-64
2022/07/20 00:45:31;;;;;;;8.97;5.40;;;16.00;27.70;;;;;;5062839;28;46348;-63
2022/07/20 00:47:57;;;;;;;10.60;5.53;;;15.90;27.90;;;;;;5062859;28;45837;-63
2022/07/20 00:50:23;;;;;;;10.20;5.60;;;15.90;28.00;;;;;;5062280;28;46494;-63
2022/07/20 00:52:48;;;;;;;9.43;4.70;;;15.90;28.00;;;;;;5062856;28;46797;-63
2022/07/20 00:55:14;;;;;;;8.43;5.20;;;15.90;27.90;;;;;;5061695;28;46379;-63
2022/07/20 00:57:39;;;;;;;10.97;5.80;;;16.00;28.00;;;;;;5061539;28;46476;-63
2022/07/20 01:00:07;;;;;;;11.27;5.93;;;16.00;27.90;;;;;;5058521;28;46456;-63
2022/07/20 01:02:33;;;;;;;11.63;5.37;;;16.10;28.10;;;;;;5062507;28;46977;-63
2022/07/20 01:04:59;;;;;;;10.87;5.33;;;16.20;28.10;;;;;;5061247;28;45928;-61
2022/07/20 01:07:24;;;;;;;9.93;5.23;;;16.20;28.30;;;;;;5061752;28;46446;-63
2022/07/20 01:09:51;;;;;;;9.83;5.20;;;16.20;28.30;;;;;;5062129;28;46325;-62
2022/07/20 01:12:17;;;;;;;10.43;5.40;;;16.20;28.40;;;;;;5062330;28;47156;-62
2022/07/20 01:14:43;;;;;;;10.50;5.60;;;16.10;28.50;;;;;;5059992;28;45972;-62
2022/07/20 01:17:09;;;;;;;11.40;5.90;;;16.10;28.70;;;;;;5059655;28;46469;-62
2022/07/20 01:19:34;;;;;;;15.83;5.30;;;16.10;28.80;;;;;;5061893;28;46666;-61
2022/07/20 01:22:00;;;;;;;11.77;6.57;;;16.00;28.70;;;;;;5061649;28;46891;-63
2022/07/20 01:24:26;;;;;;;13.20;5.33;;;16.00;29.00;;;;;;5062348;28;46491;-62
2022/07/20 01:26:52;;;;;;;10.53;5.67;;;16.00;29.00;;;;;;5059290;28;46416;-62
2022/07/20 01:29:17;;;;;;;9.00;5.70;;;15.90;29.20;;;;;;5062318;28;46326;-62
2022/07/20 01:31:43;;;;;;;9.63;4.93;;;15.70;29.30;;;;;;5062215;28;47289;-62
2022/07/20 01:34:09;;;;;;;15.00;5.50;;;15.70;29.50;;;;;;5059167;28;46386;-62
2022/07/20 01:36:35;;;;;;;13.13;5.27;;;15.60;29.60;;;;;;5060444;28;45853;-62
2022/07/20 01:39:00;;;;;;;11.13;4.83;;;15.60;29.70;;;;;;5062189;28;45880;-62
2022/07/20 01:41:26;;;;;;;8.70;5.37;;;15.60;29.80;;;;;;5060579;28;46538;-62
2022/07/20 01:43:52;;;;;;;8.40;5.30;;;15.60;29.80;;;;;;5062040;28;46345;-64
2022/07/20 01:46:17;;;;;;;9.80;5.83;;;15.60;30.00;;;;;;5060028;28;46624;-62
2022/07/20 01:48:43;;;;;;;12.20;5.13;;;15.50;30.00;;;;;;5063890;28;46400;-62
2022/07/20 01:51:09;;;;;;;11.33;5.20;;;15.40;29.90;;;;;;5067078;28;48136;-62
2022/07/20 01:53:35;;;;;;;8.03;5.37;;;15.40;29.90;;;;;;5061467;28;46469;-62
2022/07/20 01:56:00;;;;;;;9.37;5.37;;;15.30;29.80;;;;;;5061594;28;46397;-63
2022/07/20 01:58:26;;;;;;;11.60;5.50;;;15.20;29.80;;;;;;5060483;28;46397;-62
2022/07/20 02:00:52;;;;;;;9.57;5.10;;;15.20;29.80;;;;;;5061351;28;47190;-63
2022/07/20 02:03:18;;;;;;;10.40;5.23;;;15.20;29.90;;;;;;5061385;28;46417;-62
2022/07/20 02:05:45;;;;;;;15.27;5.80;;;15.20;29.80;;;;;;5060651;28;46439;-62
2022/07/20 02:08:10;;;;;;;9.03;5.20;;;15.20;29.90;;;;;;5059353;28;46419;-62
2022/07/20 02:10:36;;;;;;;9.90;5.60;;;15.20;30.00;;;;;;5062545;28;47170;-62
2022/07/20 02:13:02;;;;;;;9.60;5.80;;;15.10;30.30;;;;;;5058653;28;46318;-63
2022/07/20 02:18:13;;;;;;;8.73;5.50;;;14.90;31.00;;;;;;5057413;28;46396;-62
2022/07/20 02:20:40;;;;;;;9.30;5.67;;;14.90;31.20;;;;;;5056717;28;47813;-63
2022/07/20 02:23:07;;;;;;;9.93;6.13;;;15.00;31.20;;;;;;5060425;28;46394;-63
2022/07/20 02:25:35;;;;;;;10.77;5.80;;;15.00;31.30;;;;;;5060688;28;46396;-63
2022/07/20 02:28:00;;;;;;;11.23;5.80;;;14.90;31.60;;;;;;5059249;28;46383;-62
2022/07/20 02:30:26;;;;;;;21.20;6.10;;;14.90;31.70;;;;;;5059268;28;46333;-63
2022/07/20 02:32:51;;;;;;;13.10;6.57;;;14.90;32.20;;;;;;5060533;28;46391;-63
2022/07/20 02:35:17;;;;;;;12.57;5.20;;;14.90;32.20;;;;;;5060124;28;46475;-63
2022/07/20 02:37:43;;;;;;;14.03;6.07;;;14.90;32.30;;;;;;5061306;28;46440;-63
2022/07/20 02:40:09;;;;;;;11.03;6.17;;;14.90;32.30;;;;;;5060998;28;47050;-63
2022/07/20 02:42:34;;;;;;;15.13;5.67;;;14.90;32.30;;;;;;5059089;28;46455;-62
2022/07/20 02:45:00;;;;;;;9.90;5.60;;;15.00;32.30;;;;;;5060283;28;46432;-63
2022/07/20 02:47:26;;;;;;;12.00;6.20;;;15.00;32.20;;;;;;5057917;28;46645;-63
2022/07/20 02:49:51;;;;;;;9.13;5.67;;;15.10;32.40;;;;;;5060200;28;46640;-63
2022/07/20 02:52:17;;;;;;;16.83;5.57;;;15.10;32.30;;;;;;5060139;28;46418;-63
2022/07/20 02:54:43;;;;;;;10.50;5.60;;;15.10;32.20;;;;;;5059787;28;46342;-63
2022/07/20 02:57:09;;;;;;;13.80;5.80;;;15.20;32.30;;;;;;5058810;28;46407;-63
2022/07/20 02:59:35;;;;;;;15.73;5.80;;;15.20;32.40;;;;;;5055802;28;46658;-62
2022/07/20 03:02:00;;;;;;;11.20;5.87;;;15.30;32.50;;;;;;5060392;28;45918;-63
2022/07/20 03:04:26;;;;;;;18.23;6.10;;;15.30;32.40;;;;;;5059743;28;46416;-63
2022/07/20 03:06:51;;;;;;;12.10;5.40;;;15.40;32.40;;;;;;5059247;28;46493;-63
2022/07/20 03:09:17;;;;;;;13.00;5.53;;;15.40;32.40;;;;;;5060278;28;46399;-62
2022/07/20 03:11:43;;;;;;;9.83;5.47;;;15.40;32.50;;;;;;5058791;28;46465;-62
2022/07/20 03:14:08;;;;;;;17.60;6.00;;;15.40;32.50;;;;;;5059400;28;45873;-62
2022/07/20 03:16:34;;;;;;;11.77;5.33;;;15.50;32.60;;;;;;5059927;28;46420;-63
2022/07/20 03:18:59;;;;;;;11.43;5.70;;;15.50;32.60;;;;;;5059353;28;48091;-64
2022/07/20 03:21:25;;;;;;;9.23;5.77;;;15.40;32.60;;;;;;5059407;28;46432;-63
2022/07/20 03:23:52;;;;;;;8.57;4.80;;;15.30;32.80;;;;;;5059267;28;46499;-63
2022/07/20 03:26:18;;;;;;;14.00;5.23;;;15.30;32.80;;;;;;5060363;28;46424;-63
2022/07/20 03:28:44;;;;;;;10.23;5.87;;;15.30;32.90;;;;;;5059598;28;46544;-63
2022/07/20 03:31:10;;;;;;;10.00;6.07;;;15.30;33.00;;;;;;5059105;28;46804;-62
2022/07/20 03:33:36;;;;;;;11.40;4.90;;;15.20;33.20;;;;;;5060264;28;46417;-63
2022/07/20 03:36:02;;;;;;;9.10;5.00;;;15.10;33.30;;;;;;5060417;28;46809;-63
2022/07/20 03:38:28;;;;;;;8.80;5.57;;;15.20;33.40;;;;;;5058000;28;46631;-62
2022/07/20 03:40:53;;;;;;;12.57;6.17;;;15.10;33.30;;;;;;5060144;28;46543;-60
2022/07/20 03:43:19;;;;;;;12.40;6.10;;;15.10;33.40;;;;;;5060319;28;46314;-62
2022/07/20 03:45:44;;;;;;;11.93;7.27;;;15.10;33.50;;;;;;5060843;28;46718;-63
2022/07/20 03:48:10;;;;;;;10.23;6.80;;;15.10;33.70;;;;;;5058421;28;46346;-63
2022/07/20 03:50:36;;;;;;;13.30;6.23;;;15.20;33.80;;;;;;5061196;28;46471;-63
2022/07/20 03:53:01;;;;;;;9.87;6.00;;;15.40;33.80;;;;;;5060416;28;46380;-63
2022/07/20 03:55:27;;;;;;;11.47;4.97;;;15.40;33.70;;;;;;5059229;28;46361;-63
2022/07/20 03:57:52;;;;;;;11.33;5.70;;;15.40;33.60;;;;;;5057555;28;47374;-62
2022/07/20 04:00:18;;;;;;;19.83;6.80;;;15.40;33.50;;;;;;5066754;28;45973;-60
2022/07/20 04:02:44;;;;;;;23.80;6.03;;;15.50;33.50;;;;;;5066070;28;46473;-63
2022/07/20 04:05:10;;;;;;;11.90;6.07;;;15.60;33.40;;;;;;5068376;28;45937;-64
2022/07/20 04:07:35;;;;;;;11.93;6.07;;;15.60;33.50;;;;;;5065603;28;46340;-63
2022/07/20 04:10:02;;;;;;;9.73;6.10;;;15.50;33.70;;;;;;5068303;27;46423;-62
2022/07/20 04:12:27;;;;;;;10.67;6.00;;;15.60;33.80;;;;;;5066670;28;46452;-63
2022/07/20 04:14:53;;;;;;;11.80;6.67;;;15.70;33.60;;;;;;5068065;28;46443;-63
2022/07/20 04:17:20;;;;;;;9.80;5.83;;;15.80;33.30;;;;;;5066326;27;46121;-62
2022/07/20 04:19:47;;;;;;;21.10;6.00;;;15.90;33.10;;;;;;5064999;28;46441;-63
2022/07/20 04:22:12;;;;;;;10.63;5.90;;;16.10;32.90;;;;;;5066507;28;46514;-62
2022/07/20 04:24:38;;;;;;;11.43;5.80;;;16.30;32.90;;;;;;5065475;28;47455;-62
2022/07/20 04:27:04;;;;;;;8.50;5.70;;;16.40;32.80;;;;;;5066392;28;46447;-63
2022/07/20 04:29:30;;;;;;;10.80;6.03;;;16.50;32.90;;;;;;5067466;28;46365;-62
2022/07/20 04:31:56;;;;;;;10.63;5.33;;;16.50;32.80;;;;;;5066594;28;46433;-63
2022/07/20 04:34:22;;;;;;;14.57;6.00;;;16.50;32.90;;;;;;5067889;28;46347;-62
2022/07/20 04:36:47;;;;;;;11.53;5.97;;;16.50;33.00;;;;;;5065643;27;47021;-62
2022/07/20 04:39:13;;;;;;;13.00;6.03;;;16.50;33.00;;;;;;5066642;28;46324;-63
2022/07/20 04:41:39;;;;;;;13.70;6.63;;;16.60;33.00;;;;;;5068671;28;46365;-62
2022/07/20 04:44:05;;;;;;;10.80;5.43;;;16.70;32.90;;;;;;5068986;28;45862;-62
2022/07/20 04:46:31;;;;;;;9.00;5.97;;;16.90;32.80;;;;;;5065930;27;46413;-63
2022/07/20 04:48:56;;;;;;;14.20;6.27;;;16.90;32.30;;;;;;5065914;28;46363;-62
2022/07/20 04:51:23;;;;;;;10.50;5.97;;;17.10;32.00;;;;;;5065859;28;46409;-62
2022/07/20 04:53:49;;;;;;;10.33;6.50;;;17.30;31.60;;;;;;5067730;27;46522;-63
2022/07/20 04:56:16;;;;;;;9.77;6.03;;;17.60;31.80;;;;;;5067944;28;46457;-63
2022/07/20 04:58:41;;;;;;;8.53;5.93;;;17.90;31.00;;;;;;5069910;28;46468;-63
2022/07/20 05:01:07;;;;;;;10.83;6.27;;;18.30;31.60;;;;;;5067625;28;46440;-62
2022/07/20 05:03:32;;;;;;;9.10;5.50;;;19.00;29.20;;;;;;5070548;27;46329;-62
2022/07/20 05:05:58;;;;;;;8.30;6.20;;;20.10;28.20;;;;;;5070601;28;47031;-62
2022/07/20 05:08:24;;;;;;;8.60;5.57;;;20.90;27.30;;;;;;5069232;27;46539;-64
2022/07/20 05:10:49;;;;;;;8.30;5.90;;;22.00;25.80;;;;;;5069037;28;46486;-63
2022/07/20 05:13:15;;;;;;;16.73;6.13;;;23.50;24.10;;;;;;5070173;28;45879;-62
2022/07/20 05:15:40;;;;;;;17.03;7.20;;;24.60;22.40;;;;;;5070041;28;47084;-63
2022/07/20 05:18:06;;;;;;;13.40;6.43;;;25.40;21.20;;;;;;5067151;28;46475;-63
2022/07/20 05:20:31;;;;;;;13.80;6.90;;;26.30;19.60;;;;;;5071015;28;45906;-62
2022/07/20 05:22:57;;;;;;;10.37;5.73;;;26.90;17.80;;;;;;5070672;28;46690;-63
2022/07/20 05:25:22;;;;;;;11.63;6.43;;;27.80;16.40;;;;;;5070182;28;47942;-63
2022/07/20 05:27:48;;;;;;;18.33;6.43;;;28.50;15.00;;;;;;5069234;28;46435;-63
2022/07/20 05:30:14;;;;;;;10.50;6.90;;;29.00;13.60;;;;;;5068276;28;46785;-62
2022/07/20 05:32:39;;;;;;;9.00;5.93;;;29.60;12.50;;;;;;5068229;28;46472;-62
2022/07/20 05:35:06;;;;;;;12.20;5.73;;;30.20;11.30;;;;;;5070392;28;47258;-61
2022/07/20 05:37:32;;;;;;;12.37;6.80;;;30.70;10.10;;;;;;5066660;28;46519;-60
2022/07/20 05:39:57;;;;;;;18.27;6.03;;;31.40;8.90;;;;;;5072343;27;46529;-60
2022/07/20 05:42:23;;;;;;;11.30;7.23;;;32.20;7.30;;;;;;5071461;28;45839;-61
2022/07/20 05:44:48;;;;;;;8.60;5.47;;;32.70;6.90;;;;;;5068633;28;46533;-60
2022/07/20 05:47:14;;;;;;;17.10;6.70;;;33.20;5.80;;;;;;5069888;28;46757;-60
2022/07/20 05:49:40;;;;;;;8.10;5.90;;;33.40;4.90;;;;;;5068879;28;46361;-61
2022/07/20 05:52:05;;;;;;;8.80;6.20;;;33.80;4.40;;;;;;5068605;27;45930;-61
2022/07/20 05:54:31;;;;;;;7.27;6.10;;;34.20;3.50;;;;;;5068865;28;48409;-61
2022/07/20 05:56:57;;;;;;;9.43;6.07;;;34.50;3.10;;;;;;5068148;28;46689;-62
2022/07/20 05:59:22;;;;;;;9.97;6.30;;;34.60;2.60;;;;;;5070305;28;46464;-62
2022/07/20 06:01:48;;;;;;;15.57;6.00;;;34.80;2.40;;;;;;5067862;28;46457;-60
2022/07/20 06:04:14;;;;;;;8.93;5.77;;;35.00;1.90;;;;;;5068119;27;46171;-59
2022/07/20 06:06:40;;;;;;;12.93;5.60;;;35.00;1.60;;;;;;5069328;28;46714;-59
2022/07/20 06:09:07;;;;;;;9.37;6.07;;;34.60;2.10;;;;;;5068766;28;47527;-60
2022/07/20 06:11:33;;;;;;;15.97;6.40;;;33.30;4.50;;;;;;5067615;28;46675;-60
2022/07/20 06:13:59;;;;;;;13.43;5.30;;;31.90;7.20;;;;;;5069555;28;47079;-64
2022/07/20 06:16:25;;;;;;;7.50;5.80;;;31.00;8.20;;;;;;5067750;28;46511;-63
2022/07/20 06:18:51;;;;;;;9.17;6.40;;;30.40;10.60;;;;;;5068182;28;46730;-61
2022/07/20 06:21:17;;;;;;;14.20;6.23;;;30.10;10.20;;;;;;5071554;28;46524;-60
2022/07/20 06:23:42;;;;;;;14.70;6.70;;;29.80;10.60;;;;;;5070369;28;46208;-61
2022/07/20 06:26:08;;;;;;;11.70;5.90;;;29.60;11.00;;;;;;5068373;28;46440;-60
2022/07/20 06:28:34;;;;;;;7.97;6.17;;;29.40;11.30;;;;;;5068492;28;46712;-60
2022/07/20 06:30:59;;;;;;;11.97;6.57;;;29.30;12.50;;;;;;5068380;28;47049;-60
2022/07/20 06:33:25;;;;;;;11.60;5.73;;;29.00;11.50;;;;;;5067210;28;46921;-61
2022/07/20 06:35:51;;;;;;;10.27;6.23;;;28.80;11.80;;;;;;5067543;28;46670;-60
2022/07/20 06:38:17;;;;;;;18.33;6.37;;;28.60;11.90;;;;;;5069787;28;45890;-61
2022/07/20 06:40:42;;;;;;;17.10;6.90;;;28.50;12.30;;;;;;5067267;28;46411;-60
2022/07/20 06:43:08;;;;;;;12.23;6.87;;;28.50;12.00;;;;;;5069096;28;46364;-61
2022/07/20 06:45:34;;;;;;;9.27;6.70;;;28.50;11.80;;;;;;5066523;28;45985;-61
2022/07/20 06:47:59;;;;;;;12.93;6.80;;;28.50;11.80;;;;;;5068114;28;46445;-61
2022/07/20 06:50:25;;;;;;;23.53;8.27;;;28.50;11.90;;;;;;5066827;28;46471;-61
2022/07/20 06:52:51;;;;;;;20.23;6.90;;;28.50;11.70;;;;;;5068584;28;47953;-60
2022/07/20 06:55:16;;;;;;;13.60;6.90;;;28.30;11.60;;;;;;5068705;28;46599;-61
2022/07/20 06:57:43;;;;;;;16.23;7.07;;;28.20;12.70;;;;;;5067091;28;46547;-61
2022/07/20 07:00:10;;;;;;;16.03;6.30;;;28.20;11.80;;;;;;5069061;28;46620;-61
2022/07/20 07:02:36;;;;;;;13.40;8.17;;;28.20;11.90;;;;;;5066789;27;47041;-62
2022/07/20 07:05:02;;;;;;;19.90;7.10;;;28.20;11.90;;;;;;5065182;28;46393;-60
2022/07/20 07:07:28;;;;;;;19.03;7.43;;;28.30;11.90;;;;;;5065514;28;46714;-61
2022/07/20 07:09:54;;;;;;;17.63;7.63;;;28.30;11.90;;;;;;5066423;28;46540;-61
2022/07/20 07:12:19;;;;;;;25.20;6.97;;;28.40;11.90;;;;;;5068783;28;46450;-61
2022/07/20 07:14:45;;;;;;;13.73;7.40;;;28.50;12.80;;;;;;5065210;28;46471;-60
2022/07/20 07:17:11;;;;;;;32.43;7.07;;;28.60;11.70;;;;;;5066641;28;46480;-61
2022/07/20 07:19:39;;;;;;;14.93;7.10;;;28.80;11.70;;;;;;5069271;28;46488;-61
2022/07/20 07:22:04;;;;;;;16.23;6.00;;;28.90;11.30;;;;;;5068490;28;46406;-60
2022/07/20 07:24:30;;;;;;;11.83;6.27;;;29.00;10.80;;;;;;5067693;28;46418;-62
2022/07/20 07:26:56;;;;;;;13.70;7.00;;;29.10;10.60;;;;;;5066657;28;46403;-61
2022/07/20 07:29:22;;;;;;;18.47;6.97;;;28.90;10.50;;;;;;5067903;28;46356;-62
2022/07/20 07:31:47;;;;;;;12.37;7.53;;;29.00;10.30;;;;;;5065932;28;47154;-63
2022/07/20 07:34:13;;;;;;;12.30;7.27;;;28.80;10.30;;;;;;5068412;28;45869;-61
2022/07/20 07:36:40;;;;;;;15.10;6.20;;;28.80;10.40;;;;;;5066621;28;46860;-61
2022/07/20 07:39:06;;;;;;;11.07;7.17;;;29.00;10.30;;;;;;5068493;28;46434;-62
2022/07/20 07:41:31;;;;;;;16.70;8.23;;;29.20;9.90;;;;;;5064642;28;46979;-61
2022/07/20 07:43:57;;;;;;;11.43;6.90;;;29.10;10.00;;;;;;5066966;28;46408;-60
2022/07/20 07:46:23;;;;;;;13.73;6.87;;;29.10;9.90;;;;;;5068245;28;46477;-61
2022/07/20 07:48:48;;;;;;;14.93;7.80;;;29.20;9.90;;;;;;5064402;28;46925;-61
2022/07/20 07:51:14;;;;;;;13.20;7.13;;;29.20;9.80;;;;;;5067061;28;46395;-60
2022/07/20 07:53:39;;;;;;;11.93;6.20;;;29.40;9.70;;;;;;5066034;28;46737;-61
2022/07/20 07:56:05;;;;;;;11.80;7.40;;;29.70;9.40;;;;;;5068494;27;46396;-61
2022/07/20 07:58:31;;;;;;;12.63;6.93;;;29.80;9.20;;;;;;5068083;28;46602;-61
2022/07/20 08:00:56;;;;;;;25.40;6.70;;;29.90;8.90;;;;;;5067896;28;46426;-63
2022/07/20 08:03:22;;;;;;;10.70;7.00;;;29.90;8.70;;;;;;5067514;27;46393;-62
2022/07/20 08:05:48;;;;;;;17.30;6.80;;;29.90;9.00;;;;;;5067394;28;46398;-62
2022/07/20 08:08:16;;;;;;;11.93;6.93;;;30.10;9.10;;;;;;5068073;28;46018;-63
2022/07/20 08:10:43;;;;;;;11.10;6.57;;;30.50;8.70;;;;;;5065152;28;47643;-63
2022/07/20 08:13:10;;;;;;;8.67;6.13;;;30.70;8.10;;;;;;5067327;28;46404;-62
2022/07/20 08:15:36;;;;;;;12.13;6.70;;;30.80;7.60;;;;;;5066684;28;46468;-64
2022/07/20 08:18:03;;;;;;;14.00;7.20;;;30.70;7.30;;;;;;5067100;28;46631;-64
2022/07/20 08:20:29;;;;;;;8.30;6.80;;;30.80;7.10;;;;;;5066936;28;46691;-60
2022/07/20 08:22:55;;;;;;;10.73;7.07;;;30.80;7.20;;;;;;5068539;27;46436;-60
2022/07/20 08:25:21;;;;;;;14.93;7.27;;;30.80;7.20;;;;;;5066045;27;46378;-60
2022/07/20 08:27:46;;;;;;;11.63;6.93;;;30.90;7.00;;;;;;5066026;28;46643;-61
2022/07/20 08:30:13;;;;;;;11.57;6.20;;;31.00;6.90;;;;;;5069507;28;46986;-60
2022/07/20 08:32:39;;;;;;;13.70;7.37;;;31.20;6.80;;;;;;5070465;28;46572;-62
2022/07/20 08:35:05;;;;;;;14.40;7.43;;;31.40;7.90;;;;;;5071761;28;46475;-60
2022/07/20 08:37:30;;;;;;;8.63;6.80;;;31.50;6.90;;;;;;5069778;27;46539;-60
2022/07/20 08:39:56;;;;;;;11.33;6.60;;;31.90;6.70;;;;;;5070708;28;48133;-63
2022/07/20 08:42:22;;;;;;;12.60;6.73;;;31.90;6.20;;;;;;5070192;28;46485;-61
2022/07/20 08:44:48;;;;;;;13.13;5.97;;;31.90;6.50;;;;;;5070807;28;46397;-62
2022/07/20 08:47:14;;;;;;;10.90;6.43;;;32.00;6.80;;;;;;5069773;28;46440;-61
2022/07/20 08:49:46;;;;;;;16.47;6.10;;;32.00;5.30;;;;;;5069444;28;47183;-62
2022/07/20 08:52:12;;;;;;;9.10;5.30;;;31.90;5.40;;;;;;5068865;28;46443;-61
2022/07/20 08:54:37;;;;;;;12.23;6.07;;;31.70;5.50;;;;;;5071017;28;45871;-62
2022/07/20 08:57:14;;;;;;;12.57;6.03;;;31.90;5.40;;;;;;5072300;28;46836;-62
2022/07/20 08:59:40;;;;;;;12.70;6.87;;;32.10;5.60;;;;;;5070270;28;48204;-62
2022/07/20 09:02:08;;;;;;;11.83;6.57;;;32.40;4.90;;;;;;5070139;28;46381;-61
2022/07/20 09:04:50;;;;;;;11.30;6.80;;;32.30;5.50;;;;;;5069563;27;46838;-62
2022/07/20 09:07:16;;;;;;;19.10;6.47;;;32.20;4.50;;;;;;5068815;28;46445;-61
2022/07/20 09:09:41;;;;;;;14.67;6.80;;;32.40;4.60;;;;;;5068269;28;47177;-61
2022/07/20 09:12:07;;;;;;;11.10;6.07;;;32.50;3.90;;;;;;5068576;28;46463;-61
2022/07/20 09:14:40;;;;;;;10.70;5.90;;;32.40;4.10;;;;;;5071331;27;46487;-62
2022/07/20 09:17:18;;;;;;;15.50;6.70;;;32.30;3.80;;;;;;5069032;28;46424;-62
2022/07/20 09:20:01;;;;;;;11.53;6.60;;;32.20;3.80;;;;;;5069523;28;46459;-61
2022/07/20 09:22:36;;;;;;;11.60;6.30;;;32.40;3.60;;;;;;5068753;28;46439;-63
2022/07/20 09:25:13;;;;;;;14.60;6.63;;;32.60;3.90;;;;;;5069727;28;45918;-62
2022/07/20 09:27:40;;;;;;;7.80;5.90;;;32.90;3.40;;;;;;5066781;28;46403;-61
2022/07/20 09:30:14;;;;;;;14.90;6.40;;;32.90;3.40;;;;;;5069007;28;46338;-61
2022/07/20 09:32:58;;;;;;;9.77;5.57;;;33.00;3.10;;;;;;5067385;28;46672;-61
2022/07/20 09:35:35;;;;;;;13.17;5.83;;;33.00;2.90;;;;;;5071096;28;46677;-61
2022/07/20 09:38:03;;;;;;;14.77;6.03;;;33.00;2.80;;;;;;5069340;27;46870;-61
2022/07/20 09:40:39;;;;;;;8.83;5.87;;;33.10;2.60;;;;;;5068482;28;47146;-62
2022/07/20 09:43:05;;;;;;;14.83;5.90;;;33.30;2.40;;;;;;5070123;28;46453;-61
2022/07/20 09:45:31;;;;;;;13.97;5.50;;;33.30;2.50;;;;;;5069856;28;46504;-61
2022/07/20 09:48:06;;;;;;;11.40;5.93;;;33.30;2.30;;;;;;5068301;27;46460;-61
2022/07/20 09:50:34;;;;;;;12.23;5.70;;;33.30;1.90;;;;;;5067023;28;47281;-61
2022/07/20 09:53:00;;;;;;;13.90;5.63;;;33.30;2.10;;;;;;5059795;28;46954;-61
2022/07/20 09:55:26;;;;;;;11.83;5.73;;;33.10;2.20;;;;;;5068258;28;47481;-60
2022/07/20 09:57:53;;;;;;;9.37;5.30;;;33.20;2.10;;;;;;5066952;28;46469;-61
2022/07/20 10:00:20;;;;;;;12.70;5.87;;;33.40;1.90;;;;;;5064641;28;47190;-61
2022/07/20 10:02:48;;;;;;;11.60;6.50;;;33.40;1.90;;;;;;5067936;28;46791;-61
2022/07/20 10:05:16;;;;;;;8.07;5.27;;;33.50;1.70;;;;;;5066910;28;46431;-59
2022/07/20 10:07:43;;;;;;;10.23;6.10;;;33.60;1.50;;;;;;5066268;27;46483;-61
2022/07/20 10:10:09;;;;;;;11.63;5.80;;;33.60;1.10;;;;;;5067108;28;46692;-61
2022/07/20 10:12:35;;;;;;;10.60;6.07;;;33.50;1.00;;;;;;5068377;28;46523;-62
2022/07/20 10:15:02;;;;;;;9.23;4.93;;;33.70;1.20;;;;;;5067788;28;46623;-61
2022/07/20 10:17:32;;;;;;;13.63;5.90;;;34.10;1.00;;;;;;5065868;27;46643;-60
2022/07/20 10:19:57;;;;;;;10.80;6.03;;;34.20;1.00;;;;;;5068003;28;47298;-62
2022/07/20 10:22:26;;;;;;;10.27;5.07;;;34.20;1.00;;;;;;5070178;27;46380;-61
2022/07/20 10:25:16;;;;;;;12.80;5.40;;;34.20;1.00;;;;;;5069593;28;46497;-62
2022/07/20 10:27:42;;;;;;;14.37;5.33;;;34.30;1.00;;;;;;5065610;28;46397;-61
2022/07/20 10:30:16;;;;;;;9.87;6.10;;;34.20;1.00;;;;;;5067243;28;47407;-62
2022/07/20 10:32:58;;;;;;;10.13;5.30;;;34.30;1.00;;;;;;5066775;28;46450;-63
2022/07/20 10:35:27;;;;;;;19.43;5.57;;;34.30;1.00;;;;;;5069059;28;46650;-62
2022/07/20 10:37:54;;;;;;;12.10;5.00;;;34.40;1.00;;;;;;5067021;28;46560;-62
2022/07/20 10:40:25;;;;;;;13.27;5.50;;;34.60;1.00;;;;;;5067668;28;46989;-61
2022/07/20 10:43:13;;;;;;;11.80;5.13;;;34.80;1.00;;;;;;5068347;28;46618;-64
2022/07/20 10:45:39;;;;;;;7.03;4.87;;;34.90;1.00;;;;;;5069578;28;46353;-63
2022/07/20 10:48:11;;;;;;;10.97;4.80;;;34.90;1.00;;;;;;5066135;28;46537;-61
2022/07/20 10:50:42;;;;;;;11.60;4.73;;;34.90;1.00;;;;;;5065650;28;46443;-62
2022/07/20 10:53:10;;;;;;;7.50;4.77;;;34.80;1.00;;;;;;5066434;28;46458;-62
2022/07/20 10:55:36;;;;;;;15.80;4.80;;;34.80;1.00;;;;;;5067506;28;46469;-61
2022/07/20 10:58:04;;;;;;;8.13;5.07;;;34.80;1.00;;;;;;5066925;28;46323;-61
2022/07/20 11:00:31;;;;;;;8.40;4.70;;;34.50;1.00;;;;;;5066221;28;47607;-62
2022/07/20 11:03:01;;;;;;;12.37;4.20;;;34.50;1.00;;;;;;5067792;28;47064;-65
2022/07/20 11:05:27;;;;;;;11.30;4.40;;;34.60;1.00;;;;;;5067392;28;46512;-62
2022/07/20 11:07:53;;;;;;;17.10;4.63;;;34.70;1.00;;;;;;5066801;28;46664;-62
2022/07/20 11:10:30;;;;;;;9.27;4.60;;;34.80;1.00;;;;;;5066725;28;48189;-60
2022/07/20 11:12:58;;;;;;;9.80;5.07;;;34.90;1.00;;;;;;5068172;28;46419;-60
2022/07/20 11:15:36;;;;;;;9.27;5.13;;;35.10;1.00;;;;;;5066563;28;46432;-63
2022/07/20 11:18:02;;;;;;;16.67;5.03;;;35.00;1.00;;;;;;5067224;28;46830;-62
2022/07/20 11:20:28;;;;;;;11.83;5.00;;;34.80;1.00;;;;;;5065811;28;48182;-62
2022/07/20 11:22:56;;;;;;;6.43;4.47;;;34.80;1.00;;;;;;5066354;28;46401;-62
2022/07/20 11:25:24;;;;;;;7.03;4.60;;;34.80;1.00;;;;;;5066741;28;45922;-62
2022/07/20 11:28:03;;;;;;;6.80;4.53;;;34.80;1.00;;;;;;5065451;28;46470;-63
2022/07/20 11:30:36;;;;;;;7.73;4.10;;;34.90;1.00;;;;;;5065688;27;47878;-60
2022/07/20 11:33:02;;;;;;;10.20;4.23;;;35.00;1.00;;;;;;5066271;28;46431;-60
2022/07/20 11:35:28;;;;;;;6.00;4.00;;;35.20;1.00;;;;;;5067672;28;46490;-61
2022/07/20 11:37:54;;;;;;;15.30;4.20;;;35.30;1.00;;;;;;5066750;28;46049;-62
2022/07/20 11:40:23;;;;;;;9.57;3.90;;;35.10;1.00;;;;;;5066949;28;47196;-62
2022/07/20 11:43:13;;;;;;;7.93;4.23;;;35.10;1.00;;;;;;5068575;28;46439;-63
2022/07/20 11:45:39;;;;;;;11.33;4.20;;;35.20;1.00;;;;;;5065479;28;46335;-64
2022/07/20 11:48:25;;;;;;;8.33;4.37;;;35.20;1.00;;;;;;5066188;28;46694;-64
2022/07/20 11:50:51;;;;;;;6.80;4.60;;;35.00;1.00;;;;;;5065785;28;46604;-63
2022/07/20 11:53:28;;;;;;;7.90;4.03;;;34.90;1.00;;;;;;5062234;28;47022;-65
2022/07/20 11:55:56;;;;;;;6.20;4.10;;;35.00;1.00;;;;;;5067592;28;46483;-63
2022/07/20 11:58:36;;;;;;;13.77;4.10;;;35.20;1.00;;;;;;5066603;28;46547;-65
2022/07/20 12:01:09;;;;;;;6.50;4.10;;;35.10;1.00;;;;;;5068467;27;46739;-64
2022/07/20 12:03:40;;;;;;;10.77;4.33;;;35.00;1.00;;;;;;5070368;28;46856;-63
2022/07/20 12:06:08;;;;;;;12.73;3.57;;;35.20;1.00;;;;;;5069078;28;46501;-65
2022/07/20 12:08:35;;;;;;;11.63;4.20;;;35.20;1.00;;;;;;5068134;28;46443;-65
2022/07/20 12:11:01;;;;;;;7.40;4.00;;;35.30;1.00;;;;;;5069428;27;47056;-63
2022/07/20 12:13:27;;;;;;;11.90;4.20;;;35.30;1.00;;;;;;5069767;27;46796;-67
2022/07/20 12:16:00;;;;;;;7.47;4.10;;;35.50;1.00;;;;;;5070263;28;46467;-63
2022/07/20 12:18:33;;;;;;;9.97;3.93;;;35.60;1.00;;;;;;5068739;28;46531;-65
2022/07/20 12:21:00;;;;;;;10.20;4.60;;;35.60;1.00;;;;;;5069504;28;46919;-63
2022/07/20 12:23:26;;;;;;;12.23;4.10;;;35.50;1.00;;;;;;5069667;28;46463;-65
2022/07/20 12:25:52;;;;;;;9.40;4.60;;;35.40;1.00;;;;;;5068710;27;45921;-66
2022/07/20 12:28:31;;;;;;;9.50;4.40;;;35.30;1.00;;;;;;5068743;28;46756;-65
2022/07/20 12:31:11;;;;;;;12.90;4.13;;;35.30;1.00;;;;;;5069363;27;47414;-64
2022/07/20 12:33:37;;;;;;;9.53;4.57;;;35.30;1.00;;;;;;5068328;27;46463;-62
2022/07/20 12:36:05;;;;;;;14.80;4.27;;;35.40;1.00;;;;;;5069240;28;46382;-63
2022/07/20 12:38:33;;;;;;;7.47;4.70;;;35.40;1.00;;;;;;5068885;28;46475;-64
2022/07/20 12:41:09;;;;;;;11.83;5.10;;;35.20;1.00;;;;;;5067945;28;46999;-64
2022/07/20 12:43:40;;;;;;;7.60;4.37;;;35.30;1.00;;;;;;5075269;28;46472;-64
2022/07/20 12:46:15;;;;;;;15.03;4.20;;;35.50;1.00;;;;;;5070166;28;46453;-63
2022/07/20 12:48:46;;;;;;;9.93;4.07;;;35.70;1.00;;;;;;5068260;28;46323;-63
2022/07/20 12:51:12;;;;;;;11.23;4.27;;;35.80;1.00;;;;;;5066027;28;46748;-64